Webcam

2016/08/30 20:20 EBBR 302020Z VRB01KT CAVOK 16/11 Q1023 NOSIG

Webcam image

--- Refresh now ---